createdAt,value
2018-02-22T00:01:27.994Z,101713.41
2018-02-22T00:03:56.445Z,101704.16
2018-02-22T00:06:24.833Z,101710.09
2018-02-22T00:08:53.233Z,101710.44
2018-02-22T00:11:22.409Z,101703.81
2018-02-22T00:13:50.789Z,101704.84
2018-02-22T00:16:19.194Z,101702.09
2018-02-22T00:18:47.572Z,101702.93
2018-02-22T00:21:15.961Z,101701.10
2018-02-22T00:23:44.373Z,101700.95
2018-02-22T00:26:12.794Z,101699.00
2018-02-22T00:28:41.191Z,101701.10
2018-02-22T00:31:09.597Z,101705.71
2018-02-22T00:33:38.046Z,101692.86
2018-02-22T00:36:06.449Z,101697.73
2018-02-22T00:38:35.597Z,101694.75
2018-02-22T00:41:03.997Z,101686.88
2018-02-22T00:43:32.381Z,101686.44
2018-02-22T00:46:00.819Z,101690.63
2018-02-22T00:48:29.215Z,101683.46
2018-02-22T00:50:57.585Z,101684.60
2018-02-22T00:53:26.001Z,101683.11
2018-02-22T00:55:54.438Z,101683.52
2018-02-22T00:58:22.817Z,101678.36
2018-02-22T01:00:51.244Z,101673.63
2018-02-22T01:03:20.405Z,101675.30
2018-02-22T01:05:48.852Z,101669.66
2018-02-22T01:08:17.290Z,101669.34
2018-02-22T01:10:45.670Z,101672.60
2018-02-22T01:13:14.833Z,101670.94
2018-02-22T01:15:43.231Z,101671.36
2018-02-22T01:18:11.632Z,101672.45
2018-02-22T01:20:40.781Z,101675.66
2018-02-22T01:23:09.162Z,101678.08
2018-02-22T01:25:37.555Z,101680.11
2018-02-22T01:28:06.018Z,101678.13
2018-02-22T01:30:34.406Z,101677.59
2018-02-22T01:33:02.833Z,101675.60
2018-02-22T01:35:32.001Z,101677.87
2018-02-22T01:38:00.378Z,101673.67
2018-02-22T01:40:28.761Z,101675.19
2018-02-22T01:42:57.195Z,101670.12
2018-02-22T01:45:25.597Z,101678.45
2018-02-22T01:47:53.986Z,101664.73
2018-02-22T01:50:22.424Z,101671.28
2018-02-22T01:52:50.792Z,101672.44
2018-02-22T01:55:19.943Z,101667.86
2018-02-22T01:57:48.348Z,101664.22
2018-02-22T02:00:16.713Z,101668.39
2018-02-22T02:02:45.134Z,101657.98
2018-02-22T02:05:13.547Z,101664.33
2018-02-22T02:07:41.917Z,101661.72
2018-02-22T02:10:10.371Z,101656.85
2018-02-22T02:12:38.773Z,101659.97
2018-02-22T02:15:07.181Z,101654.41
2018-02-22T02:17:35.568Z,101664.41
2018-02-22T02:20:03.992Z,101668.45
2018-02-22T02:22:32.394Z,101660.64
2018-02-22T02:25:00.772Z,101665.97
2018-02-22T02:27:29.179Z,101665.23
2018-02-22T02:29:57.576Z,101664.95
2018-02-22T02:32:25.982Z,101671.53
2018-02-22T02:34:54.372Z,101663.05
2018-02-22T02:37:22.819Z,101666.64
2018-02-22T02:39:51.971Z,101673.05
2018-02-22T02:42:20.484Z,101665.66
2018-02-22T02:44:48.829Z,101668.14
2018-02-22T02:47:17.233Z,101662.16
2018-02-22T02:49:45.658Z,101668.87
2018-02-22T02:52:14.043Z,101670.30
2018-02-22T02:54:42.439Z,101657.42
2018-02-22T02:57:10.849Z,101659.66
2018-02-22T02:59:39.250Z,101656.14
2018-02-22T03:02:08.390Z,101647.19
2018-02-22T03:04:36.799Z,101649.27
2018-02-22T03:07:05.232Z,101645.79
2018-02-22T03:09:33.618Z,101647.79
2018-02-22T03:12:02.009Z,101646.75
2018-02-22T03:14:30.400Z,101637.94
2018-02-22T03:16:58.789Z,101642.44
2018-02-22T03:19:27.196Z,101644.19
2018-02-22T03:21:56.440Z,101642.80
2018-02-22T03:24:24.935Z,101642.11
2018-02-22T03:26:53.345Z,101645.67
2018-02-22T03:29:21.786Z,101647.30
2018-02-22T03:31:50.181Z,101641.09
2018-02-22T03:34:18.582Z,101646.17
2018-02-22T03:36:46.961Z,101646.25
2018-02-22T03:39:16.141Z,101649.67
2018-02-22T03:41:44.537Z,101651.02
2018-02-22T03:44:12.909Z,101645.86
2018-02-22T03:46:41.345Z,101651.09
2018-02-22T03:49:09.721Z,101643.91
2018-02-22T03:51:38.127Z,101645.45
2018-02-22T03:54:06.519Z,101648.75
2018-02-22T03:56:34.910Z,101649.25
2018-02-22T03:59:03.342Z,101643.11
2018-02-22T04:01:31.738Z,101641.36
2018-02-22T04:04:00.148Z,101645.42
2018-02-22T04:06:28.518Z,101636.64
2018-02-22T04:08:56.915Z,101641.42
2018-02-22T04:11:26.083Z,101641.95
2018-02-22T04:13:54.474Z,101653.81
2018-02-22T04:16:22.887Z,101651.34
2018-02-22T04:18:51.255Z,101653.14
2018-02-22T04:21:20.449Z,101652.47
2018-02-22T04:23:49.618Z,101655.30
2018-02-22T04:26:18.008Z,101659.70
2018-02-22T04:28:46.400Z,101653.97
2018-02-22T04:31:14.773Z,101655.88
2018-02-22T04:33:43.174Z,101662.11
2018-02-22T04:36:11.575Z,101655.90
2018-02-22T04:38:40.787Z,101660.27
2018-02-22T04:41:09.933Z,101659.03
2018-02-22T04:43:39.077Z,101661.39
2018-02-22T04:46:07.473Z,101663.68
2018-02-22T04:48:35.917Z,101663.19
2018-02-22T04:51:04.410Z,101662.68
2018-02-22T04:53:32.783Z,101661.39
2018-02-22T04:56:01.189Z,101663.30
2018-02-22T04:58:29.590Z,101655.34
2018-02-22T05:00:58.820Z,101657.89
2018-02-22T05:03:27.244Z,101655.90
2018-02-22T05:05:55.646Z,101652.33
2018-02-22T05:08:24.798Z,101660.62
2018-02-22T05:10:53.208Z,101652.07
2018-02-22T05:13:21.603Z,101652.14
2018-02-22T05:15:49.979Z,101659.65
2018-02-22T05:18:18.397Z,101657.53
2018-02-22T05:20:46.797Z,101662.41
2018-02-22T05:23:15.172Z,101662.64
2018-02-22T05:25:43.585Z,101663.48
2018-02-22T05:28:11.959Z,101657.14
2018-02-22T05:30:41.138Z,101655.25
2018-02-22T05:33:09.563Z,101660.38
2018-02-22T05:35:38.705Z,101653.23
2018-02-22T05:38:07.089Z,101657.93
2018-02-22T05:40:35.491Z,101656.16
2018-02-22T05:43:03.941Z,101655.75
2018-02-22T05:45:32.317Z,101657.22
2018-02-22T05:48:00.812Z,101651.06
2018-02-22T05:50:29.200Z,101646.52
2018-02-22T05:52:57.599Z,101647.78
2018-02-22T05:55:25.986Z,101647.17
2018-02-22T05:57:54.414Z,101653.73
2018-02-22T06:00:22.809Z,101646.76
2018-02-22T06:02:51.217Z,101651.08
2018-02-22T06:05:20.456Z,101650.17
2018-02-22T06:07:48.869Z,101643.53
2018-02-22T06:10:17.287Z,101653.45
2018-02-22T06:12:46.433Z,101651.51
2018-02-22T06:15:14.813Z,101658.25
2018-02-22T06:17:43.240Z,101655.34
2018-02-22T06:20:12.538Z,101656.17
2018-02-22T06:22:40.791Z,101655.50
2018-02-22T06:25:09.189Z,101655.41
2018-02-22T06:27:38.369Z,101656.92
2018-02-22T06:30:06.773Z,101656.50
2018-02-22T06:32:35.909Z,101652.02
2018-02-22T06:35:04.322Z,101656.65
2018-02-22T06:37:32.723Z,101657.38
2018-02-22T06:40:01.159Z,101657.38
2018-02-22T06:42:29.586Z,101662.81
2018-02-22T06:44:58.730Z,101663.48
2018-02-22T06:47:27.126Z,101665.15
2018-02-22T06:49:55.534Z,101667.38
2018-02-22T06:52:24.725Z,101674.88
2018-02-22T06:54:53.097Z,101674.94
2018-02-22T06:57:21.508Z,101677.46
2018-02-22T06:59:49.887Z,101670.98
2018-02-22T07:02:18.272Z,101672.37
2018-02-22T07:04:46.695Z,101668.88
2018-02-22T07:07:15.090Z,101672.02
2018-02-22T07:09:43.460Z,101668.22
2018-02-22T07:12:11.866Z,101675.76
2018-02-22T07:14:40.996Z,101683.49
2018-02-22T07:17:09.385Z,101683.86
2018-02-22T07:19:37.806Z,101676.86
2018-02-22T07:22:06.183Z,101679.91
2018-02-22T07:24:34.552Z,101687.66
2018-02-22T07:27:02.968Z,101695.52
2018-02-22T07:29:31.352Z,101695.03
2018-02-22T07:31:59.773Z,101686.86
2018-02-22T07:34:28.153Z,101691.58
2018-02-22T07:36:56.519Z,101698.57
2018-02-22T07:39:24.933Z,101693.13
2018-02-22T07:41:53.322Z,101688.88
2018-02-22T07:44:22.475Z,101695.75
2018-02-22T07:46:50.884Z,101702.13
2018-02-22T07:49:19.281Z,101701.48
2018-02-22T07:51:48.422Z,101711.95
2018-02-22T07:54:16.811Z,101703.19
2018-02-22T07:56:45.206Z,101708.13
2018-02-22T07:59:13.605Z,101704.39
2018-02-22T08:01:41.992Z,101713.56
2018-02-22T08:04:11.168Z,101717.66
2018-02-22T08:06:39.571Z,101705.05
2018-02-22T08:09:08.714Z,101708.58
2018-02-22T08:11:37.133Z,101721.21
2018-02-22T08:14:06.284Z,101717.03
2018-02-22T08:16:34.655Z,101713.02
2018-02-22T08:19:03.084Z,101714.84
2018-02-22T08:21:31.522Z,101716.56
2018-02-22T08:23:59.923Z,101718.95
2018-02-22T08:26:28.395Z,101724.73
2018-02-22T08:28:56.793Z,101720.94
2018-02-22T08:31:25.212Z,101728.25
2018-02-22T08:33:53.590Z,101728.83
2018-02-22T08:36:21.968Z,101726.78
2018-02-22T08:38:50.375Z,101736.32
2018-02-22T08:41:18.777Z,101736.85
2018-02-22T08:43:47.151Z,101734.98
2018-02-22T08:46:15.602Z,101735.09
2018-02-22T08:48:43.990Z,101739.79
2018-02-22T08:51:12.370Z,101731.66
2018-02-22T08:53:40.797Z,101733.22
2018-02-22T08:56:09.942Z,101729.82
2018-02-22T08:58:38.340Z,101730.42
2018-02-22T09:01:07.473Z,101729.77
2018-02-22T09:03:36.659Z,101728.84
2018-02-22T09:06:05.813Z,101733.39
2018-02-22T09:08:34.182Z,101733.69
2018-02-22T09:11:02.582Z,101733.41
2018-02-22T09:13:30.965Z,101732.64
2018-02-22T09:15:59.339Z,101741.19
2018-02-22T09:18:27.745Z,101742.87
2018-02-22T09:20:56.143Z,101729.55
2018-02-22T09:23:25.283Z,101728.30
2018-02-22T09:25:53.654Z,101722.56
2018-02-22T09:28:22.071Z,101725.05
2018-02-22T09:30:50.449Z,101725.72
2018-02-22T09:33:18.882Z,101725.23
2018-02-22T09:35:47.262Z,101730.30
2018-02-22T09:38:15.626Z,101725.58
2018-02-22T09:40:44.027Z,101725.52
2018-02-22T09:43:12.479Z,101726.84
2018-02-22T09:45:40.887Z,101727.16
2018-02-22T09:48:09.290Z,101727.78
2018-02-22T09:50:37.686Z,101728.36
2018-02-22T09:53:06.085Z,101728.13
2018-02-22T09:55:35.237Z,101733.38
2018-02-22T09:58:04.367Z,101729.01
2018-02-22T10:00:32.751Z,101732.47
2018-02-22T10:03:01.893Z,101737.48
2018-02-22T10:05:30.283Z,101739.88
2018-02-22T10:07:58.651Z,101736.89
2018-02-22T10:10:27.057Z,101737.75
2018-02-22T10:12:55.421Z,101738.82
2018-02-22T10:15:23.816Z,101735.06
2018-02-22T10:17:52.189Z,101739.31
2018-02-22T10:20:20.573Z,101737.04
2018-02-22T10:22:48.980Z,101735.66
2018-02-22T10:25:18.124Z,101730.70
2018-02-22T10:27:46.521Z,101734.30
2018-02-22T10:30:14.906Z,101737.86
2018-02-22T10:32:43.285Z,101742.37
2018-02-22T10:35:11.670Z,101734.37
2018-02-22T10:37:40.064Z,101728.95
2018-02-22T10:40:09.203Z,101737.91
2018-02-22T10:42:37.567Z,101731.92
2018-02-22T10:45:06.011Z,101724.09
2018-02-22T10:47:34.391Z,101730.23
2018-02-22T10:50:02.766Z,101729.53
2018-02-22T10:52:31.173Z,101724.09
2018-02-22T10:54:59.560Z,101723.86
2018-02-22T10:57:27.924Z,101720.80
2018-02-22T10:59:56.333Z,101720.61
2018-02-22T11:02:30.358Z,101721.39
2018-02-22T11:04:58.760Z,101715.43
2018-02-22T11:07:27.149Z,101717.00
2018-02-22T11:09:55.532Z,101718.09
2018-02-22T11:12:24.725Z,101716.13
2018-02-22T11:14:53.132Z,101707.56
2018-02-22T11:17:21.518Z,101711.72
2018-02-22T11:19:49.888Z,101710.45
2018-02-22T11:22:18.301Z,101709.27
2018-02-22T11:24:46.666Z,101705.83
2018-02-22T11:27:15.291Z,101701.15
2018-02-22T11:29:43.951Z,101706.84
2018-02-22T11:32:12.409Z,101703.20
2018-02-22T11:34:40.810Z,101695.78
2018-02-22T11:37:09.946Z,101697.63
2018-02-22T11:39:38.401Z,101697.91
2018-02-22T11:42:06.834Z,101695.06
2018-02-22T11:44:35.214Z,101690.00
2018-02-22T11:47:03.596Z,101689.11
2018-02-22T11:49:32.006Z,101678.38
2018-02-22T11:52:00.378Z,101681.33
2018-02-22T11:54:28.779Z,101681.77
2018-02-22T11:56:57.173Z,101674.41
2018-02-22T11:59:25.601Z,101677.70
2018-02-22T12:01:53.984Z,101678.27
2018-02-22T12:04:22.352Z,101674.61
2018-02-22T12:06:50.760Z,101683.66
2018-02-22T12:09:19.135Z,101677.80
2018-02-22T12:11:47.485Z,101669.70
2018-02-22T12:14:15.894Z,101675.62
2018-02-22T12:16:44.273Z,101675.33
2018-02-22T12:19:12.650Z,101666.59
2018-02-22T12:21:41.052Z,101669.25
2018-02-22T12:24:09.463Z,101672.39
2018-02-22T12:26:37.865Z,101665.44
2018-02-22T12:29:06.267Z,101657.42
2018-02-22T12:31:35.423Z,101648.78
2018-02-22T12:34:03.802Z,101660.28
2018-02-22T12:36:32.195Z,101655.73
2018-02-22T12:39:00.574Z,101655.50
2018-02-22T12:41:29.032Z,101647.50
2018-02-22T12:43:58.199Z,101649.17
2018-02-22T12:46:26.558Z,101638.97
2018-02-22T12:48:54.982Z,101646.02
2018-02-22T12:51:24.121Z,101636.44
2018-02-22T12:53:52.518Z,101639.37
2018-02-22T12:56:20.931Z,101632.80
2018-02-22T12:58:50.062Z,101635.76
2018-02-22T13:01:18.467Z,101629.72
2018-02-22T13:03:46.836Z,101623.58
2018-02-22T13:06:15.210Z,101616.91
2018-02-22T13:08:43.605Z,101615.00
2018-02-22T13:11:11.983Z,101618.83
2018-02-22T13:13:40.394Z,101617.72
2018-02-22T13:16:09.527Z,101616.52
2018-02-22T13:18:37.918Z,101611.00
2018-02-22T13:21:06.297Z,101610.05
2018-02-22T13:23:34.693Z,101612.87
2018-02-22T13:26:03.062Z,101604.78
2018-02-22T13:28:31.456Z,101597.00
2018-02-22T13:30:59.867Z,101600.36
2018-02-22T13:33:46.798Z,101599.39
2018-02-22T13:36:15.223Z,101584.02
2018-02-22T13:39:01.322Z,101586.53
2018-02-22T13:41:29.728Z,101589.92
2018-02-22T13:44:16.677Z,101587.59
2018-02-22T13:46:45.085Z,101583.14
2018-02-22T13:49:31.288Z,101579.38
2018-02-22T13:51:59.665Z,101565.61
2018-02-22T13:54:28.105Z,101575.05
2018-02-22T13:57:14.152Z,101572.39
2018-02-22T13:59:42.545Z,101566.19
2018-02-22T14:02:25.175Z,101571.81
2018-02-22T14:04:53.596Z,101562.73
2018-02-22T14:07:22.044Z,101563.67
2018-02-22T14:09:50.420Z,101558.88
2018-02-22T14:12:18.825Z,101549.37
2018-02-22T14:14:47.208Z,101558.25
2018-02-22T14:17:15.581Z,101541.51
2018-02-22T14:19:43.997Z,101547.80
2018-02-22T14:22:12.393Z,101543.06
2018-02-22T14:24:41.544Z,101546.98
2018-02-22T14:27:09.914Z,101533.05
2018-02-22T14:29:38.301Z,101533.70
2018-02-22T14:32:06.698Z,101541.42
2018-02-22T14:34:35.101Z,101546.07
2018-02-22T14:37:04.230Z,101537.28
2018-02-22T14:39:32.637Z,101535.67
2018-02-22T14:42:00.999Z,101537.81
2018-02-22T14:44:29.402Z,101536.05
2018-02-22T14:46:57.813Z,101537.91
2018-02-22T14:49:26.945Z,101533.86
2018-02-22T14:51:55.314Z,101531.76
2018-02-22T14:54:23.701Z,101527.90
2018-02-22T14:56:52.093Z,101533.91
2018-02-22T14:59:20.513Z,101535.56
2018-02-22T15:01:48.913Z,101532.62
2018-02-22T15:04:17.303Z,101528.31
2018-02-22T15:06:45.730Z,101533.58
2018-02-22T15:09:14.098Z,101533.81
2018-02-22T15:11:42.486Z,101533.73
2018-02-22T15:14:10.899Z,101529.53
2018-02-22T15:16:40.039Z,101525.73
2018-02-22T15:19:08.458Z,101531.73
2018-02-22T15:21:36.861Z,101531.69
2018-02-22T15:24:05.321Z,101537.48
2018-02-22T15:26:33.874Z,101532.97
2018-02-22T15:29:02.261Z,101534.27
2018-02-22T15:31:30.911Z,101538.23
2018-02-22T15:33:59.609Z,101530.11
2018-02-22T15:36:28.006Z,101531.07
2018-02-22T15:38:56.366Z,101534.10
2018-02-22T15:41:24.733Z,101533.07
2018-02-22T15:43:53.146Z,101535.86
2018-02-22T15:46:21.565Z,101542.33
2018-02-22T15:48:49.925Z,101543.77
2018-02-22T15:51:18.292Z,101545.83
2018-02-22T15:53:47.848Z,101547.48
2018-02-22T15:56:17.061Z,101554.92
2018-02-22T15:58:46.112Z,101554.17
2018-02-22T16:01:14.738Z,101549.41
2018-02-22T16:03:43.286Z,101550.44
2018-02-22T16:06:11.689Z,101543.13
2018-02-22T16:08:40.095Z,101547.69
2018-02-22T16:11:08.523Z,101552.25
2018-02-22T16:13:37.654Z,101542.81
2018-02-22T16:16:06.156Z,101543.89
2018-02-22T16:18:34.641Z,101553.77
2018-02-22T16:21:03.018Z,101540.66
2018-02-22T16:23:31.385Z,101541.03
2018-02-22T16:25:59.851Z,101547.06
2018-02-22T16:28:28.257Z,101544.83
2018-02-22T16:30:56.634Z,101542.31
2018-02-22T16:33:25.006Z,101549.23
2018-02-22T16:35:53.405Z,101545.61
2018-02-22T16:38:21.940Z,101544.30
2018-02-22T16:40:50.333Z,101544.60
2018-02-22T16:43:18.734Z,101541.31
2018-02-22T16:45:47.198Z,101542.34
2018-02-22T16:48:15.674Z,101541.31
2018-02-22T16:50:44.057Z,101538.22
2018-02-22T16:53:12.588Z,101542.70
2018-02-22T16:55:41.727Z,101535.15
2018-02-22T16:58:10.107Z,101539.47
2018-02-22T17:00:38.656Z,101543.02
2018-02-22T17:03:07.040Z,101539.44
2018-02-22T17:05:35.446Z,101546.73
2018-02-22T17:08:03.817Z,101541.73
2018-02-22T17:10:32.352Z,101545.53
2018-02-22T17:13:01.632Z,101542.63
2018-02-22T17:15:30.047Z,101542.13
2018-02-22T17:17:58.458Z,101545.83
2018-02-22T17:20:26.886Z,101544.05
2018-02-22T17:22:55.292Z,101542.23
2018-02-22T17:25:23.082Z,101543.46
2018-02-22T17:27:56.938Z,101548.12
2018-02-22T17:30:30.889Z,101540.09
2018-02-22T17:32:59.266Z,101543.45
2018-02-22T17:38:51.862Z,101544.19
2018-02-22T17:41:35.101Z,101536.66
2018-02-22T17:44:03.497Z,101541.70
2018-02-22T17:46:31.878Z,101542.06
2018-02-22T17:49:00.245Z,101547.58
2018-02-22T17:51:28.639Z,101539.44
2018-02-22T17:53:57.020Z,101542.81
2018-02-22T17:56:25.408Z,101541.97
2018-02-22T17:58:53.771Z,101547.91
2018-02-22T18:01:22.142Z,101548.47
2018-02-22T18:03:50.529Z,101549.13
2018-02-22T18:06:18.890Z,101547.95
2018-02-22T18:08:47.274Z,101548.15
2018-02-22T18:11:15.658Z,101550.69
2018-02-22T18:13:44.025Z,101559.60
2018-02-22T18:16:12.419Z,101555.97
2018-02-22T18:18:40.793Z,101562.58
2018-02-22T18:21:09.153Z,101558.16
2018-02-22T18:23:37.546Z,101563.39
2018-02-22T18:26:06.195Z,101564.77
2018-02-22T18:28:35.370Z,101561.81
2018-02-22T18:31:03.742Z,101564.15
2018-02-22T18:33:32.102Z,101556.26
2018-02-22T18:36:00.494Z,101563.11
2018-02-22T18:38:28.885Z,101564.32
2018-02-22T18:41:00.213Z,101566.88
2018-02-22T18:43:34.512Z,101562.03
2018-02-22T18:46:02.942Z,101557.64
2018-02-22T18:48:31.310Z,101568.59
2018-02-22T18:50:59.674Z,101564.30
2018-02-22T18:53:28.065Z,101570.06
2018-02-22T18:55:56.450Z,101564.30
2018-02-22T18:58:24.814Z,101566.17
2018-02-22T19:00:53.207Z,101562.58
2018-02-22T19:03:21.765Z,101560.41
2018-02-22T19:05:50.329Z,101562.08
2018-02-22T19:08:18.718Z,101559.12
2018-02-22T19:10:47.080Z,101562.30
2018-02-22T19:13:15.464Z,101562.20
2018-02-22T19:15:43.835Z,101555.23
2018-02-22T19:18:12.317Z,101560.24
2018-02-22T19:20:40.876Z,101554.89
2018-02-22T19:23:09.426Z,101553.36
2018-02-22T19:25:37.786Z,101563.20
2018-02-22T19:28:06.929Z,101563.58
2018-02-22T19:30:36.073Z,101570.69
2018-02-22T19:33:04.437Z,101572.56
2018-02-22T19:35:32.820Z,101570.85
2018-02-22T19:38:01.178Z,101567.42
2018-02-22T19:40:30.346Z,101572.27
2018-02-22T19:42:58.710Z,101569.05
2018-02-22T19:45:27.093Z,101566.75
2018-02-22T19:47:55.454Z,101565.75
2018-02-22T19:50:23.841Z,101572.90
2018-02-22T19:52:52.230Z,101566.17
2018-02-22T19:55:20.589Z,101569.05
2018-02-22T19:57:48.986Z,101572.35
2018-02-22T20:00:17.350Z,101575.60
2018-02-22T20:02:45.706Z,101575.60
2018-02-22T20:05:14.125Z,101570.92
2018-02-22T20:07:42.531Z,101569.63
2018-02-22T20:10:11.661Z,101578.64
2018-02-22T20:12:40.041Z,101574.01
2018-02-22T20:15:08.438Z,101576.52
2018-02-22T20:17:36.797Z,101574.89
2018-02-22T20:20:05.166Z,101581.94
2018-02-22T20:22:33.551Z,101582.94
2018-02-22T20:25:01.909Z,101579.19
2018-02-22T20:27:30.267Z,101583.65
2018-02-22T20:29:58.653Z,101577.67
2018-02-22T20:32:27.784Z,101587.78
2018-02-22T20:34:56.156Z,101580.98
2018-02-22T20:37:24.541Z,101581.39
2018-02-22T20:39:52.902Z,101583.70
2018-02-22T20:42:22.029Z,101582.16
2018-02-22T20:44:50.403Z,101589.37
2018-02-22T20:47:18.766Z,101585.11
2018-02-22T20:49:47.137Z,101579.48
2018-02-22T20:52:16.813Z,101576.67
2018-02-22T20:54:50.869Z,101576.39
2018-02-22T20:57:19.238Z,101572.93
2018-02-22T20:59:48.365Z,101576.73
2018-02-22T21:02:16.751Z,101574.42
2018-02-22T21:04:45.112Z,101569.37
2018-02-22T21:07:13.489Z,101574.06
2018-02-22T21:09:41.848Z,101570.62
2018-02-22T21:12:10.220Z,101573.59
2018-02-22T21:14:39.364Z,101567.91
2018-02-22T21:17:07.753Z,101572.75
2018-02-22T21:19:36.153Z,101579.35
2018-02-22T21:22:04.513Z,101577.89
2018-02-22T21:24:32.894Z,101572.17
2018-02-22T21:27:01.286Z,101578.72
2018-02-22T21:29:29.650Z,101584.27
2018-02-22T21:31:58.038Z,101583.78
2018-02-22T21:34:26.398Z,101584.62
2018-02-22T21:36:54.767Z,101586.40
2018-02-22T21:39:23.228Z,101586.40
2018-02-22T21:41:51.625Z,101588.23
2018-02-22T21:44:19.998Z,101587.68
2018-02-22T21:46:48.386Z,101583.80
2018-02-22T21:49:16.754Z,101589.91
2018-02-22T21:51:45.154Z,101585.16
2018-02-22T21:54:13.518Z,101578.19
2018-02-22T21:56:41.882Z,101574.77
2018-02-22T21:59:10.278Z,101578.61
2018-02-22T22:01:38.643Z,101574.97
2018-02-22T22:04:07.009Z,101574.08
2018-02-22T22:06:35.404Z,101583.55
2018-02-22T22:09:03.890Z,101579.05
2018-02-22T22:11:32.301Z,101579.75
2018-02-22T22:14:00.688Z,101585.15
2018-02-22T22:16:29.845Z,101581.22
2018-02-22T22:18:58.214Z,101582.69
2018-02-22T22:21:26.600Z,101582.13
2018-02-22T22:23:55.018Z,101582.84
2018-02-22T22:26:23.409Z,101580.81
2018-02-22T22:28:51.778Z,101579.52
2018-02-22T22:31:20.218Z,101584.81
2018-02-22T22:33:48.629Z,101586.62
2018-02-22T22:36:17.017Z,101582.48
2018-02-22T22:38:45.425Z,101582.42
2018-02-22T22:41:14.558Z,101576.30
2018-02-22T22:43:43.005Z,101581.02
2018-02-22T22:46:12.236Z,101584.31
2018-02-22T22:48:40.602Z,101579.67
2018-02-22T22:51:09.002Z,101580.88
2018-02-22T22:53:37.407Z,101581.14
2018-02-22T22:56:05.776Z,101583.00
2018-02-22T22:58:34.129Z,101582.77
2018-02-22T23:01:02.531Z,101580.96
2018-02-22T23:03:30.897Z,101577.03
2018-02-22T23:05:59.265Z,101580.66
2018-02-22T23:08:27.650Z,101575.97
2018-02-22T23:10:56.015Z,101577.31
2018-02-22T23:13:24.461Z,101577.17
2018-02-22T23:15:52.831Z,101580.62
2018-02-22T23:18:21.199Z,101582.45
2018-02-22T23:20:49.586Z,101588.56
2018-02-22T23:23:17.965Z,101585.48
2018-02-22T23:25:46.402Z,101581.59
2018-02-22T23:28:14.766Z,101589.55
2018-02-22T23:30:43.153Z,101593.63
2018-02-22T23:33:11.546Z,101592.13
2018-02-22T23:35:39.913Z,101590.88
2018-02-22T23:38:08.278Z,101586.44
2018-02-22T23:40:42.699Z,101592.21
2018-02-22T23:43:11.064Z,101586.31
2018-02-22T23:45:40.203Z,101591.14
2018-02-22T23:48:08.591Z,101588.00
2018-02-22T23:50:36.960Z,101591.16
2018-02-22T23:53:05.337Z,101595.14
2018-02-22T23:55:33.710Z,101586.99
2018-02-22T23:58:02.112Z,101582.14
